sensor_id;sensor_type;location;lat;lon;timestamp;temperature;humidity
22676;DHT22;12521;43.310;21.876;2024-02-14T00:06:36;7.9;96.0
22676;DHT22;12521;43.310;21.876;2024-02-14T00:11:12;7.9;96.0
22676;DHT22;12521;43.310;21.876;2024-02-14T00:15:49;7.9;96.0
22676;DHT22;12521;43.310;21.876;2024-02-14T00:20:25;7.9;96.0
22676;DHT22;12521;43.310;21.876;2024-02-14T00:25:03;7.9;96.0
22676;DHT22;12521;43.310;21.876;2024-02-14T00:29:40;7.9;96.0
22676;DHT22;12521;43.310;21.876;2024-02-14T00:43:29;7.7;96.0
22676;DHT22;12521;43.310;21.876;2024-02-14T00:48:07;7.7;96.0
22676;DHT22;12521;43.310;21.876;2024-02-14T00:52:43;7.7;96.0
22676;DHT22;12521;43.310;21.876;2024-02-14T00:57:20;7.7;96.0
22676;DHT22;12521;43.310;21.876;2024-02-14T01:01:56;7.7;96.0
22676;DHT22;12521;43.310;21.876;2024-02-14T01:06:33;7.7;96.0
22676;DHT22;12521;43.310;21.876;2024-02-14T01:11:10;7.7;96.0
22676;DHT22;12521;43.310;21.876;2024-02-14T01:25:00;7.7;96.0
22676;DHT22;12521;43.310;21.876;2024-02-14T01:29:37;7.7;96.0
22676;DHT22;12521;43.310;21.876;2024-02-14T01:34:14;7.7;96.0
22676;DHT22;12521;43.310;21.876;2024-02-14T01:38:51;7.7;96.0
22676;DHT22;12521;43.310;21.876;2024-02-14T01:43:27;7.7;96.0
22676;DHT22;12521;43.310;21.876;2024-02-14T01:48:09;7.7;96.0
22676;DHT22;12521;43.310;21.876;2024-02-14T01:52:46;7.7;96.0
22676;DHT22;12521;43.310;21.876;2024-02-14T01:57:25;7.7;96.0
22676;DHT22;12521;43.310;21.876;2024-02-14T02:02:01;7.7;96.0
22676;DHT22;12521;43.310;21.876;2024-02-14T02:06:39;7.7;96.0
22676;DHT22;12521;43.310;21.876;2024-02-14T02:11:15;7.7;96.0
22676;DHT22;12521;43.310;21.876;2024-02-14T02:43:36;7.2;96.0
22676;DHT22;12521;43.310;21.876;2024-02-14T02:48:12;7.2;96.0
22676;DHT22;12521;43.310;21.876;2024-02-14T02:52:49;7.2;96.0
22676;DHT22;12521;43.310;21.876;2024-02-14T02:57:25;7.2;96.0
22676;DHT22;12521;43.310;21.876;2024-02-14T03:02:03;7.2;96.0
22676;DHT22;12521;43.310;21.876;2024-02-14T03:06:40;7.2;96.0
22676;DHT22;12521;43.310;21.876;2024-02-14T03:11:16;7.2;96.0
22676;DHT22;12521;43.310;21.876;2024-02-14T03:15:53;7.1;96.0
22676;DHT22;12521;43.310;21.876;2024-02-14T03:20:29;7.1;96.0
22676;DHT22;12521;43.310;21.876;2024-02-14T03:25:07;7.1;96.0
22676;DHT22;12521;43.310;21.876;2024-02-14T03:29:44;7.1;96.0
22676;DHT22;12521;43.310;21.876;2024-02-14T03:34:20;7.1;96.0
22676;DHT22;12521;43.310;21.876;2024-02-14T03:38:56;7.1;96.0
22676;DHT22;12521;43.310;21.876;2024-02-14T03:43:32;7.1;96.0
22676;DHT22;12521;43.310;21.876;2024-02-14T03:48:08;7.1;96.0
22676;DHT22;12521;43.310;21.876;2024-02-14T03:52:44;7.1;96.0
22676;DHT22;12521;43.310;21.876;2024-02-14T04:06:33;7.1;96.0
22676;DHT22;12521;43.310;21.876;2024-02-14T04:11:10;7.1;96.0
22676;DHT22;12521;43.310;21.876;2024-02-14T04:15:47;7.1;96.0
22676;DHT22;12521;43.310;21.876;2024-02-14T04:20:24;7.1;96.0
22676;DHT22;12521;43.310;21.876;2024-02-14T04:25:01;7.1;96.0
22676;DHT22;12521;43.310;21.876;2024-02-14T04:29:37;7.1;96.0
22676;DHT22;12521;43.310;21.876;2024-02-14T05:06:29;6.7;96.0
22676;DHT22;12521;43.310;21.876;2024-02-14T05:11:05;6.7;96.0
22676;DHT22;12521;43.310;21.876;2024-02-14T05:15:41;6.7;96.0
22676;DHT22;12521;43.310;21.876;2024-02-14T05:20:18;6.7;96.0
22676;DHT22;12521;43.310;21.876;2024-02-14T05:24:54;6.7;96.0
22676;DHT22;12521;43.310;21.876;2024-02-14T05:29:31;6.7;96.0
22676;DHT22;12521;43.310;21.876;2024-02-14T05:47:56;6.3;96.0
22676;DHT22;12521;43.310;21.876;2024-02-14T05:52:32;6.3;96.0
22676;DHT22;12521;43.310;21.876;2024-02-14T05:57:09;6.3;96.0
22676;DHT22;12521;43.310;21.876;2024-02-14T06:01:45;6.3;96.0
22676;DHT22;12521;43.310;21.876;2024-02-14T06:06:21;6.2;96.0
22676;DHT22;12521;43.310;21.876;2024-02-14T06:10:57;6.2;96.0
22676;DHT22;12521;43.310;21.876;2024-02-14T06:15:33;6.2;96.0
22676;DHT22;12521;43.310;21.876;2024-02-14T06:20:12;6.2;96.0
22676;DHT22;12521;43.310;21.876;2024-02-14T06:24:49;6.2;96.0
22676;DHT22;12521;43.310;21.876;2024-02-14T06:29:25;6.2;96.0
22676;DHT22;12521;43.310;21.876;2024-02-14T06:34:01;6.1;96.0
22676;DHT22;12521;43.310;21.876;2024-02-14T06:38:38;6.1;96.0
22676;DHT22;12521;43.310;21.876;2024-02-14T06:43:15;6.1;96.0
22676;DHT22;12521;43.310;21.876;2024-02-14T06:47:51;6.0;96.0
22676;DHT22;12521;43.310;21.876;2024-02-14T06:52:28;6.0;96.0
22676;DHT22;12521;43.310;21.876;2024-02-14T06:57:05;6.0;96.0
22676;DHT22;12521;43.310;21.876;2024-02-14T07:01:41;6.0;96.0
22676;DHT22;12521;43.310;21.876;2024-02-14T07:06:18;6.0;96.0
22676;DHT22;12521;43.310;21.876;2024-02-14T07:10:55;6.0;96.0
22676;DHT22;12521;43.310;21.876;2024-02-14T07:24:46;6.1;96.0
22676;DHT22;12521;43.310;21.876;2024-02-14T07:29:22;6.1;96.0
22676;DHT22;12521;43.310;21.876;2024-02-14T07:33:59;6.1;96.0
22676;DHT22;12521;43.310;21.876;2024-02-14T07:38:35;6.1;96.0
22676;DHT22;12521;43.310;21.876;2024-02-14T07:43:11;6.1;96.0
22676;DHT22;12521;43.310;21.876;2024-02-14T07:47:49;6.1;96.0
22676;DHT22;12521;43.310;21.876;2024-02-14T07:52:25;6.1;96.0
22676;DHT22;12521;43.310;21.876;2024-02-14T07:57:01;6.1;96.0
22676;DHT22;12521;43.310;21.876;2024-02-14T08:01:37;6.1;96.0
22676;DHT22;12521;43.310;21.876;2024-02-14T08:06:14;6.2;96.0
22676;DHT22;12521;43.310;21.876;2024-02-14T08:10:51;6.2;96.0
22676;DHT22;12521;43.310;21.876;2024-02-14T08:15:27;6.4;96.0
22676;DHT22;12521;43.310;21.876;2024-02-14T08:20:07;6.4;96.0
22676;DHT22;12521;43.310;21.876;2024-02-14T08:24:45;6.4;96.0
22676;DHT22;12521;43.310;21.876;2024-02-14T08:29:23;6.4;96.0
22676;DHT22;12521;43.310;21.876;2024-02-14T08:47:47;7.1;96.0
22676;DHT22;12521;43.310;21.876;2024-02-14T08:52:24;7.1;96.0
22676;DHT22;12521;43.310;21.876;2024-02-14T08:57:05;7.1;96.0
22676;DHT22;12521;43.310;21.876;2024-02-14T09:01:41;7.1;96.0
22676;DHT22;12521;43.310;21.876;2024-02-14T09:06:18;7.2;96.0
22676;DHT22;12521;43.310;21.876;2024-02-14T09:10:54;7.2;96.0
22676;DHT22;12521;43.310;21.876;2024-02-14T09:15:30;7.4;96.0
22676;DHT22;12521;43.310;21.876;2024-02-14T09:20:10;7.4;96.0
22676;DHT22;12521;43.310;21.876;2024-02-14T09:24:50;7.4;96.0
22676;DHT22;12521;43.310;21.876;2024-02-14T09:29:27;7.4;96.0
22676;DHT22;12521;43.310;21.876;2024-02-14T10:25:35;8.3;96.0
22676;DHT22;12521;43.310;21.876;2024-02-14T10:30:14;8.3;96.0
22676;DHT22;12521;43.310;21.876;2024-02-14T10:34:51;8.3;96.0
22676;DHT22;12521;43.310;21.876;2024-02-14T10:39:32;8.3;96.0
22676;DHT22;12521;43.310;21.876;2024-02-14T10:44:12;8.4;96.0
22676;DHT22;12521;43.310;21.876;2024-02-14T10:49:03;8.4;96.0
22676;DHT22;12521;43.310;21.876;2024-02-14T10:53:48;8.4;96.0
22676;DHT22;12521;43.310;21.876;2024-02-14T10:58:34;8.5;96.0
22676;DHT22;12521;43.310;21.876;2024-02-14T11:03:13;8.5;96.0
22676;DHT22;12521;43.310;21.876;2024-02-14T11:07:50;8.6;96.0
22676;DHT22;12521;43.310;21.876;2024-02-14T11:12:33;8.6;96.0
22676;DHT22;12521;43.310;21.876;2024-02-14T11:17:13;8.8;96.0
22676;DHT22;12521;43.310;21.876;2024-02-14T11:21:49;8.8;96.0
22676;DHT22;12521;43.310;21.876;2024-02-14T11:26:26;8.8;96.0
22676;DHT22;12521;43.310;21.876;2024-02-14T11:31:02;8.8;96.0
22676;DHT22;12521;43.310;21.876;2024-02-14T11:44:55;9.3;96.0
22676;DHT22;12521;43.310;21.876;2024-02-14T11:49:32;9.3;96.0
22676;DHT22;12521;43.310;21.876;2024-02-14T11:54:10;9.3;96.0
22676;DHT22;12521;43.310;21.876;2024-02-14T11:58:47;9.3;96.0
22676;DHT22;12521;43.310;21.876;2024-02-14T12:03:26;9.3;96.0
22676;DHT22;12521;43.310;21.876;2024-02-14T12:08:07;9.3;96.0
22676;DHT22;12521;43.310;21.876;2024-02-14T12:12:47;9.3;96.0
22676;DHT22;12521;43.310;21.876;2024-02-14T12:26:42;9.8;96.0
22676;DHT22;12521;43.310;21.876;2024-02-14T12:31:25;9.8;96.0
22676;DHT22;12521;43.310;21.876;2024-02-14T12:36:02;9.8;96.0
22676;DHT22;12521;43.310;21.876;2024-02-14T12:40:42;9.8;96.0
22676;DHT22;12521;43.310;21.876;2024-02-14T12:45:18;9.9;96.0
22676;DHT22;12521;43.310;21.876;2024-02-14T12:49:54;9.9;96.0
22676;DHT22;12521;43.310;21.876;2024-02-14T12:54:30;10.0;96.0
22676;DHT22;12521;43.310;21.876;2024-02-14T12:59:07;10.0;96.0
22676;DHT22;12521;43.310;21.876;2024-02-14T13:03:43;10.0;96.0
22676;DHT22;12521;43.310;21.876;2024-02-14T13:08:19;10.0;96.0
22676;DHT22;12521;43.310;21.876;2024-02-14T13:12:55;10.0;96.0
22676;DHT22;12521;43.310;21.876;2024-02-14T13:26:46;10.0;96.0
22676;DHT22;12521;43.310;21.876;2024-02-14T13:31:22;10.0;96.0
22676;DHT22;12521;43.310;21.876;2024-02-14T13:35:58;10.0;96.0
22676;DHT22;12521;43.310;21.876;2024-02-14T13:40:35;10.0;96.0
22676;DHT22;12521;43.310;21.876;2024-02-14T13:45:11;10.1;96.0
22676;DHT22;12521;43.310;21.876;2024-02-14T13:49:48;10.1;96.0
22676;DHT22;12521;43.310;21.876;2024-02-14T13:54:25;10.2;96.0
22676;DHT22;12521;43.310;21.876;2024-02-14T13:59:01;10.2;96.0
22676;DHT22;12521;43.310;21.876;2024-02-14T14:03:37;10.2;96.0
22676;DHT22;12521;43.310;21.876;2024-02-14T14:08:13;10.0;96.0
22676;DHT22;12521;43.310;21.876;2024-02-14T14:12:49;10.0;96.0
22676;DHT22;12521;43.310;21.876;2024-02-14T14:17:26;9.9;96.0
22676;DHT22;12521;43.310;21.876;2024-02-14T14:22:03;9.9;96.0
22676;DHT22;12521;43.310;21.876;2024-02-14T14:26:39;9.9;96.0
22676;DHT22;12521;43.310;21.876;2024-02-14T14:31:15;9.9;96.0
22676;DHT22;12521;43.310;21.876;2024-02-14T15:08:09;9.2;96.0
22676;DHT22;12521;43.310;21.876;2024-02-14T15:12:46;9.2;96.0
22676;DHT22;12521;43.310;21.876;2024-02-14T15:17:23;9.2;96.0
22676;DHT22;12521;43.310;21.876;2024-02-14T15:21:59;9.2;96.0
22676;DHT22;12521;43.310;21.876;2024-02-14T15:26:35;9.2;96.0
22676;DHT22;12521;43.310;21.876;2024-02-14T15:31:12;9.2;96.0
22676;DHT22;12521;43.310;21.876;2024-02-14T15:35:48;9.2;96.0
22676;DHT22;12521;43.310;21.876;2024-02-14T15:40:24;9.2;96.0
22676;DHT22;12521;43.310;21.876;2024-02-14T15:45:00;9.0;96.0
22676;DHT22;12521;43.310;21.876;2024-02-14T15:49:36;9.0;96.0
22676;DHT22;12521;43.310;21.876;2024-02-14T15:54:12;8.8;96.0
22676;DHT22;12521;43.310;21.876;2024-02-14T15:58:48;8.8;96.0
22676;DHT22;12521;43.310;21.876;2024-02-14T16:03:25;8.8;96.0
22676;DHT22;12521;43.310;21.876;2024-02-14T16:08:01;8.8;96.0
22676;DHT22;12521;43.310;21.876;2024-02-14T16:12:37;8.8;96.0
22676;DHT22;12521;43.310;21.876;2024-02-14T16:44:52;8.0;96.0
22676;DHT22;12521;43.310;21.876;2024-02-14T16:49:29;8.0;96.0
22676;DHT22;12521;43.310;21.876;2024-02-14T16:54:05;8.0;96.0
22676;DHT22;12521;43.310;21.876;2024-02-14T16:58:41;8.0;96.0
22676;DHT22;12521;43.310;21.876;2024-02-14T17:03:17;8.0;96.0
22676;DHT22;12521;43.310;21.876;2024-02-14T17:07:54;7.9;96.0
22676;DHT22;12521;43.310;21.876;2024-02-14T17:12:30;7.9;96.0
22676;DHT22;12521;43.310;21.876;2024-02-14T17:17:07;7.8;96.0
22676;DHT22;12521;43.310;21.876;2024-02-14T17:21:44;7.8;96.0
22676;DHT22;12521;43.310;21.876;2024-02-14T17:26:20;7.8;96.0
22676;DHT22;12521;43.310;21.876;2024-02-14T17:30:57;7.8;96.0
22676;DHT22;12521;43.310;21.876;2024-02-14T17:44:49;7.7;96.0
22676;DHT22;12521;43.310;21.876;2024-02-14T17:49:26;7.7;96.0
22676;DHT22;12521;43.310;21.876;2024-02-14T17:54:03;7.7;96.0
22676;DHT22;12521;43.310;21.876;2024-02-14T17:58:39;7.7;96.0
22676;DHT22;12521;43.310;21.876;2024-02-14T18:03:16;7.7;96.0
22676;DHT22;12521;43.310;21.876;2024-02-14T18:07:51;7.7;96.0
22676;DHT22;12521;43.310;21.876;2024-02-14T18:12:27;7.7;96.0
22676;DHT22;12521;43.310;21.876;2024-02-14T18:26:15;7.8;96.0
22676;DHT22;12521;43.310;21.876;2024-02-14T18:30:51;7.8;96.0
22676;DHT22;12521;43.310;21.876;2024-02-14T18:35:28;7.8;96.0
22676;DHT22;12521;43.310;21.876;2024-02-14T18:40:08;7.8;96.0
22676;DHT22;12521;43.310;21.876;2024-02-14T18:44:46;7.8;96.0
22676;DHT22;12521;43.310;21.876;2024-02-14T18:49:22;7.8;96.0
22676;DHT22;12521;43.310;21.876;2024-02-14T18:53:58;7.8;96.0
22676;DHT22;12521;43.310;21.876;2024-02-14T20:07:38;7.1;96.0
22676;DHT22;12521;43.310;21.876;2024-02-14T20:12:17;7.1;96.0
22676;DHT22;12521;43.310;21.876;2024-02-14T20:16:53;7.1;96.0
22676;DHT22;12521;43.310;21.876;2024-02-14T20:21:31;7.1;96.0
22676;DHT22;12521;43.310;21.876;2024-02-14T20:26:07;7.1;96.0
22676;DHT22;12521;43.310;21.876;2024-02-14T20:30:44;7.1;96.0
22676;DHT22;12521;43.310;21.876;2024-02-14T21:07:34;6.4;96.0
22676;DHT22;12521;43.310;21.876;2024-02-14T21:12:10;6.4;96.0
22676;DHT22;12521;43.310;21.876;2024-02-14T21:16:47;6.4;96.0
22676;DHT22;12521;43.310;21.876;2024-02-14T21:21:23;6.4;96.0
22676;DHT22;12521;43.310;21.876;2024-02-14T21:26:00;6.4;96.0
22676;DHT22;12521;43.310;21.876;2024-02-14T21:30:36;6.4;96.0
22676;DHT22;12521;43.310;21.876;2024-02-14T21:35:13;6.3;96.0
22676;DHT22;12521;43.310;21.876;2024-02-14T21:39:49;6.3;96.0
22676;DHT22;12521;43.310;21.876;2024-02-14T21:44:26;6.3;96.0
22676;DHT22;12521;43.310;21.876;2024-02-14T21:49:02;6.2;96.0
22676;DHT22;12521;43.310;21.876;2024-02-14T21:53:38;6.2;96.0
22676;DHT22;12521;43.310;21.876;2024-02-14T21:58:15;6.2;96.0
22676;DHT22;12521;43.310;21.876;2024-02-14T22:02:51;6.2;96.0
22676;DHT22;12521;43.310;21.876;2024-02-14T22:07:27;6.2;96.0
22676;DHT22;12521;43.310;21.876;2024-02-14T22:12:06;6.2;96.0
22676;DHT22;12521;43.310;21.876;2024-02-14T22:48:56;6.4;96.0
22676;DHT22;12521;43.310;21.876;2024-02-14T22:53:33;6.4;96.0
22676;DHT22;12521;43.310;21.876;2024-02-14T22:58:10;6.4;96.0
22676;DHT22;12521;43.310;21.876;2024-02-14T23:02:47;6.4;96.0
22676;DHT22;12521;43.310;21.876;2024-02-14T23:07:23;6.3;96.0
22676;DHT22;12521;43.310;21.876;2024-02-14T23:12:00;6.3;96.0
22676;DHT22;12521;43.310;21.876;2024-02-14T23:16:37;6.2;96.0
22676;DHT22;12521;43.310;21.876;2024-02-14T23:21:13;6.2;96.0
22676;DHT22;12521;43.310;21.876;2024-02-14T23:25:50;6.2;96.0
22676;DHT22;12521;43.310;21.876;2024-02-14T23:30:26;6.2;96.0
